Time,TemperatureF,DewpointF,PressureIn,WindDirection,WindDirectionDegrees,WindSpeedMPH,WindSpeedGustMPH,Humidity,HourlyPrecipIn,Conditions,Clouds,dailyrainin,SoftwareType,DateUTC
2013-02-08 00:00:00,27.0,24.8,23.89,North,0,0.0,-999.0,91,0.00,,,0.00,,2013-02-08 08:00:00,
2013-02-08 01:00:00,26.6,24.4,23.88,North,0,0.0,-999.0,91,0.08,,,0.08,,2013-02-08 09:00:00,
2013-02-08 02:00:00,26.5,24.5,23.88,North,0,0.0,-999.0,92,0.08,,,0.17,,2013-02-08 10:00:00,
2013-02-08 03:00:00,24.5,22.5,23.86,North,0,0.0,-999.0,92,0.17,,,0.34,,2013-02-08 11:00:00,
2013-02-08 04:00:00,24.1,22.2,23.87,North,0,0.0,-999.0,92,0.12,,,0.47,,2013-02-08 12:00:00,
2013-02-08 05:00:00,23.4,21.4,23.85,North,0,0.0,-999.0,92,0.04,,,0.51,,2013-02-08 13:00:00,
2013-02-08 06:00:00,23.6,21.6,23.85,North,0,0.0,-999.0,92,0.00,,,0.51,,2013-02-08 14:00:00,
2013-02-08 07:07:00,23.4,21.4,23.85,North,0,0.0,-999.0,92,0.04,,,0.56,,2013-02-08 15:07:00,
2013-02-08 08:00:00,24.5,22.5,23.85,North,0,0.0,-999.0,92,0.00,,,0.56,,2013-02-08 16:00:00,
2013-02-08 09:07:00,26.3,24.3,23.85,North,0,0.0,-999.0,92,0.00,,,0.58,,2013-02-08 17:07:00,
2013-02-08 10:00:00,25.6,23.3,23.85,North,0,0.0,-999.0,91,0.02,,,0.60,,2013-02-08 18:00:00,
2013-02-08 11:07:00,26.5,23.4,23.85,North,0,0.0,-999.0,88,0.00,,,0.60,,2013-02-08 19:07:00,
2013-02-08 12:00:00,26.3,22.3,23.84,North,0,0.0,-999.0,85,0.02,,,0.62,,2013-02-08 20:00:00,
2013-02-08 13:06:00,25.7,21.9,23.84,North,0,0.0,-999.0,85,0.02,,,0.64,,2013-02-08 21:06:00,
2013-02-08 14:00:00,25.0,22.2,23.81,North,0,0.0,-999.0,89,0.00,,,0.64,,2013-02-08 22:00:00,
2013-02-08 15:07:00,25.6,22.5,23.81,North,0,0.0,-999.0,88,0.02,,,0.67,,2013-02-08 23:07:00,
2013-02-08 16:00:00,24.7,22.1,23.81,North,0,0.0,-999.0,90,0.00,,,0.67,,2013-02-09 00:00:00,
2013-02-08 17:07:00,24.1,21.6,23.81,North,0,0.0,-999.0,90,0.02,,,0.69,,2013-02-09 01:07:00,
2013-02-08 18:00:00,23.6,20.5,23.82,North,0,0.0,-999.0,88,0.00,,,0.69,,2013-02-09 02:00:00,
2013-02-08 19:00:00,23.4,20.9,23.83,North,0,0.0,-999.0,90,0.00,,,0.69,,2013-02-09 03:00:00,
2013-02-08 20:00:00,23.4,20.3,23.83,North,0,0.0,-999.0,88,0.00,,,0.69,,2013-02-09 04:00:00,
2013-02-08 21:00:00,23.6,20.5,23.84,North,0,0.0,-999.0,88,0.00,,,0.69,,2013-02-09 05:00:00,
2013-02-08 22:00:00,23.4,20.3,23.86,North,0,0.0,-999.0,88,0.00,,,0.69,,2013-02-09 06:00:00,
2013-02-08 23:00:00,23.8,21.5,23.86,North,0,0.0,-999.0,91,0.00,,,0.69,,2013-02-09 07:00:00,